createdAt,value
2022-11-05T00:01:31.281Z,9.32
2022-11-05T00:04:51.739Z,9.34
2022-11-05T00:08:13.358Z,9.33
2022-11-05T00:11:18.318Z,9.29
2022-11-05T00:14:38.581Z,9.34
2022-11-05T00:17:41.605Z,9.28
2022-11-05T00:20:44.198Z,9.28
2022-11-05T00:24:05.713Z,9.28
2022-11-05T00:27:08.770Z,9.15
2022-11-05T00:30:13.162Z,9.21
2022-11-05T00:33:15.843Z,9.25
2022-11-05T00:36:18.391Z,9.20
2022-11-05T00:39:22.327Z,9.18
2022-11-05T00:42:42.332Z,9.22
2022-11-05T00:45:44.905Z,9.27
2022-11-05T00:49:05.167Z,9.17
2022-11-05T00:52:21.642Z,9.16
2022-11-05T00:55:28.202Z,9.31
2022-11-05T00:58:30.772Z,9.15
2022-11-05T01:01:33.436Z,9.19
2022-11-05T01:04:36.028Z,9.35
2022-11-05T01:07:38.634Z,9.36
2022-11-05T01:10:43.647Z,9.24
2022-11-05T01:13:46.205Z,9.46
2022-11-05T01:16:48.770Z,9.50
2022-11-05T01:19:51.905Z,9.33
2022-11-05T01:22:54.463Z,9.29
2022-11-05T01:25:59.676Z,9.25
2022-11-05T01:29:02.303Z,9.36
2022-11-05T01:32:05.293Z,9.35
2022-11-05T01:35:11.221Z,9.29
2022-11-05T01:38:13.799Z,9.18
2022-11-05T01:41:17.701Z,9.26
2022-11-05T01:44:54.163Z,9.21
2022-11-05T01:48:02.489Z,9.25
2022-11-05T01:51:08.006Z,9.20
2022-11-05T01:54:14.988Z,9.20
2022-11-05T01:57:18.968Z,9.04
2022-11-05T02:00:21.713Z,9.04
2022-11-05T02:03:25.334Z,9.09
2022-11-05T02:06:31.110Z,9.01
2022-11-05T02:09:40.244Z,8.90
2022-11-05T02:12:47.173Z,8.85
2022-11-05T02:16:00.556Z,8.80
2022-11-05T02:19:37.118Z,8.64
2022-11-05T02:23:05.909Z,8.67
2022-11-05T02:26:36.935Z,8.56
2022-11-05T02:30:06.778Z,8.61
2022-11-05T02:33:28.261Z,8.42
2022-11-05T02:36:40.881Z,8.42
2022-11-05T02:39:53.866Z,8.48
2022-11-05T02:43:04.067Z,8.42
2022-11-05T02:46:16.553Z,8.35
2022-11-05T02:49:35.520Z,8.21
2022-11-05T02:52:44.333Z,8.35
2022-11-05T02:55:54.424Z,8.37
2022-11-05T02:58:57.003Z,8.37
2022-11-05T03:02:01.772Z,8.31
2022-11-05T03:05:06.727Z,8.33
2022-11-05T03:08:20.142Z,8.24
2022-11-05T03:11:25.100Z,8.28
2022-11-05T03:14:37.193Z,8.26
2022-11-05T03:17:52.042Z,8.23
2022-11-05T03:21:03.861Z,8.16
2022-11-05T03:24:13.578Z,8.15
2022-11-05T03:27:22.393Z,8.12
2022-11-05T03:30:25.763Z,8.05
2022-11-05T03:33:31.037Z,8.03
2022-11-05T03:36:39.579Z,7.97
2022-11-05T03:39:46.907Z,8.01
2022-11-05T03:42:55.062Z,7.97
2022-11-05T03:46:01.876Z,7.82
2022-11-05T03:49:07.264Z,7.82
2022-11-05T03:52:17.331Z,7.90
2022-11-05T03:55:21.147Z,7.85
2022-11-05T03:58:24.580Z,7.91
2022-11-05T04:01:28.377Z,7.95
2022-11-05T04:04:31.031Z,7.95
2022-11-05T04:07:52.468Z,7.82
2022-11-05T04:11:12.904Z,8.02
2022-11-05T04:14:15.470Z,8.04
2022-11-05T04:17:18.004Z,7.89
2022-11-05T04:20:38.563Z,7.82
2022-11-05T04:24:00.443Z,7.86
2022-11-05T04:27:02.986Z,7.86
2022-11-05T04:30:22.713Z,7.88
2022-11-05T04:33:25.254Z,7.95
2022-11-05T04:36:27.972Z,7.60
2022-11-05T04:39:31.898Z,7.64
2022-11-05T04:42:34.453Z,7.73
2022-11-05T04:45:37.126Z,7.72
2022-11-05T04:48:39.703Z,7.89
2022-11-05T04:51:42.247Z,7.86
2022-11-05T04:54:46.163Z,7.79
2022-11-05T04:57:49.723Z,7.76
2022-11-05T05:00:52.338Z,7.61
2022-11-05T05:03:55.297Z,7.61
2022-11-05T05:06:57.904Z,7.66
2022-11-05T05:10:02.155Z,7.60
2022-11-05T05:13:04.713Z,7.56
2022-11-05T05:16:08.457Z,7.79
2022-11-05T05:19:11.025Z,7.70
2022-11-05T05:22:12.635Z,7.14
2022-11-05T05:25:16.731Z,7.49
2022-11-05T05:28:19.270Z,7.61
2022-11-05T05:31:22.359Z,7.62
2022-11-05T05:34:24.914Z,7.60
2022-11-05T05:37:27.453Z,7.68
2022-11-05T05:40:31.440Z,7.56
2022-11-05T05:43:34.886Z,7.58
2022-11-05T05:46:37.461Z,7.61
2022-11-05T05:49:40.187Z,7.31
2022-11-05T05:52:42.757Z,7.29
2022-11-05T05:55:46.656Z,7.32
2022-11-05T05:58:49.230Z,7.47
2022-11-05T06:01:51.854Z,7.45
2022-11-05T06:04:54.514Z,7.52
2022-11-05T06:07:57.412Z,7.50
2022-11-05T06:11:01.761Z,7.51
2022-11-05T06:14:04.447Z,7.51
2022-11-05T06:17:08.152Z,7.35
2022-11-05T06:20:11.686Z,7.47
2022-11-05T06:23:15.317Z,7.50
2022-11-05T06:26:20.013Z,7.51
2022-11-05T06:29:22.626Z,7.49
2022-11-05T06:32:25.347Z,7.56
2022-11-05T06:35:27.876Z,7.53
2022-11-05T06:38:33.365Z,7.51
2022-11-05T06:41:56.925Z,7.63
2022-11-05T06:44:59.878Z,7.56
2022-11-05T06:48:02.535Z,7.28
2022-11-05T06:51:05.939Z,7.21
2022-11-05T06:54:09.287Z,7.49
2022-11-05T06:57:13.796Z,7.45
2022-11-05T07:00:17.344Z,7.45
2022-11-05T07:03:19.901Z,7.36
2022-11-05T07:06:22.436Z,7.53
2022-11-05T07:09:24.951Z,7.50
2022-11-05T07:12:28.868Z,7.24
2022-11-05T07:15:31.575Z,7.32
2022-11-05T07:18:34.119Z,7.22
2022-11-05T07:21:36.697Z,7.08
2022-11-05T07:24:39.219Z,7.41
2022-11-05T07:27:43.660Z,7.49
2022-11-05T07:30:46.350Z,7.52
2022-11-05T07:33:48.897Z,7.65
2022-11-05T07:36:51.435Z,7.48
2022-11-05T07:39:53.985Z,7.55
2022-11-05T07:42:59.321Z,7.71
2022-11-05T07:46:01.870Z,7.72
2022-11-05T07:49:04.850Z,7.66
2022-11-05T07:52:07.420Z,7.68
2022-11-05T07:55:11.105Z,7.57
2022-11-05T07:58:15.101Z,7.65
2022-11-05T08:01:17.964Z,7.67
2022-11-05T08:04:20.938Z,7.13
2022-11-05T08:07:23.513Z,7.45
2022-11-05T08:10:26.973Z,7.62
2022-11-05T08:13:30.884Z,7.87
2022-11-05T08:16:33.429Z,7.88
2022-11-05T08:19:35.994Z,7.82
2022-11-05T08:22:38.647Z,7.78
2022-11-05T08:25:41.241Z,7.61
2022-11-05T08:28:45.164Z,7.65
2022-11-05T08:31:47.722Z,8.10
2022-11-05T08:34:50.261Z,8.28
2022-11-05T08:37:57.324Z,8.37
2022-11-05T08:41:00.412Z,8.58
2022-11-05T08:44:04.455Z,8.44
2022-11-05T08:47:07.152Z,8.37
2022-11-05T08:50:10.728Z,8.21
2022-11-05T08:53:14.199Z,8.61
2022-11-05T08:56:16.952Z,8.92
2022-11-05T08:59:20.878Z,8.84
2022-11-05T09:02:23.561Z,9.01
2022-11-05T09:05:26.248Z,9.00
2022-11-05T09:08:28.895Z,9.02
2022-11-05T09:11:56.949Z,9.17
2022-11-05T09:14:55.387Z,9.59
2022-11-05T09:17:58.284Z,9.54
2022-11-05T09:21:00.809Z,9.66
2022-11-05T09:24:03.364Z,9.84
2022-11-05T09:27:05.914Z,9.94
2022-11-05T09:30:12.118Z,10.38
2022-11-05T09:33:15.560Z,10.54
2022-11-05T09:36:18.121Z,10.83
2022-11-05T09:39:20.703Z,10.90
2022-11-05T09:42:27.693Z,10.97
2022-11-05T09:45:35.476Z,11.20
2022-11-05T09:48:40.526Z,11.39
2022-11-05T09:51:43.208Z,11.32
2022-11-05T09:54:48.577Z,11.05
2022-11-05T09:57:55.706Z,11.16
2022-11-05T10:01:00.040Z,11.26
2022-11-05T10:04:08.322Z,11.02
2022-11-05T10:07:16.702Z,10.65
2022-11-05T10:10:29.528Z,10.73
2022-11-05T10:13:37.449Z,10.93
2022-11-05T10:16:44.753Z,11.00
2022-11-05T10:19:51.758Z,11.32
2022-11-05T10:22:57.821Z,11.47
2022-11-05T10:26:03.561Z,13.14
2022-11-05T10:29:06.396Z,14.05
2022-11-05T10:32:14.419Z,15.09
2022-11-05T10:35:22.462Z,15.54
2022-11-05T10:38:25.377Z,15.33
2022-11-05T10:41:37.748Z,15.50
2022-11-05T10:44:47.559Z,16.30
2022-11-05T10:48:05.026Z,16.73
2022-11-05T10:51:08.598Z,16.96
2022-11-05T10:54:16.817Z,18.05
2022-11-05T10:57:32.635Z,17.98
2022-11-05T11:00:35.448Z,18.84
2022-11-05T11:03:45.461Z,19.39
2022-11-05T11:06:51.615Z,19.22
2022-11-05T11:09:54.905Z,20.07
2022-11-05T11:12:58.433Z,19.17
2022-11-05T11:16:15.848Z,17.46
2022-11-05T11:19:28.761Z,16.94
2022-11-05T11:22:31.343Z,15.82
2022-11-05T11:25:40.528Z,15.16
2022-11-05T11:28:48.326Z,14.58
2022-11-05T11:31:55.924Z,13.98
2022-11-05T11:35:01.096Z,14.04
2022-11-05T11:38:03.701Z,13.70
2022-11-05T11:41:20.944Z,13.98
2022-11-05T11:44:29.452Z,14.09
2022-11-05T11:47:33.441Z,13.67
2022-11-05T11:50:40.999Z,13.55
2022-11-05T11:53:43.571Z,13.62
2022-11-05T11:56:47.879Z,13.82
2022-11-05T12:03:25.253Z,14.77
2022-11-05T12:06:36.925Z,14.45
2022-11-05T12:09:56.300Z,14.01
2022-11-05T12:13:22.466Z,13.91
2022-11-05T12:16:39.883Z,13.60
2022-11-05T12:19:59.267Z,13.36
2022-11-05T12:23:30.711Z,13.26
2022-11-05T12:26:44.421Z,13.02
2022-11-05T12:29:58.725Z,13.04
2022-11-05T12:33:21.312Z,13.00
2022-11-05T12:36:38.128Z,13.04
2022-11-05T12:40:02.235Z,13.05
2022-11-05T12:43:12.071Z,12.95
2022-11-05T12:46:27.435Z,12.98
2022-11-05T12:49:53.007Z,14.80
2022-11-05T12:53:14.841Z,15.08
2022-11-05T12:56:34.245Z,15.36
2022-11-05T12:59:41.068Z,17.95
2022-11-05T13:02:50.571Z,19.24
2022-11-05T13:05:59.061Z,20.52
2022-11-05T13:09:08.051Z,20.90
2022-11-05T13:12:15.994Z,19.42
2022-11-05T13:15:26.728Z,17.77
2022-11-05T13:18:35.930Z,17.85
2022-11-05T13:21:40.295Z,17.56
2022-11-05T13:24:49.132Z,16.76
2022-11-05T13:27:59.153Z,15.84
2022-11-05T13:31:05.320Z,14.83
2022-11-05T13:34:11.902Z,15.50
2022-11-05T13:37:37.929Z,16.32
2022-11-05T13:40:51.315Z,16.43
2022-11-05T13:44:20.356Z,16.92
2022-11-05T13:47:42.048Z,15.66
2022-11-05T13:51:01.365Z,15.47
2022-11-05T13:54:30.277Z,14.95
2022-11-05T13:57:49.765Z,15.08
2022-11-05T14:01:08.328Z,14.62
2022-11-05T14:04:20.745Z,14.42
2022-11-05T14:07:28.498Z,13.90
2022-11-05T14:10:36.968Z,14.14
2022-11-05T14:13:43.447Z,14.08
2022-11-05T14:16:53.022Z,13.72
2022-11-05T14:20:24.157Z,13.66
2022-11-05T14:23:50.824Z,13.76
2022-11-05T14:27:30.909Z,12.98
2022-11-05T14:30:42.232Z,12.94
2022-11-05T14:33:56.444Z,12.61
2022-11-05T14:37:22.146Z,12.85
2022-11-05T14:40:33.504Z,12.49
2022-11-05T14:43:36.220Z,12.51
2022-11-05T14:46:44.324Z,12.59
2022-11-05T15:45:43.254Z,11.01
2022-11-05T15:48:49.635Z,11.35
2022-11-05T15:51:52.132Z,11.36
2022-11-05T15:55:09.855Z,11.32
2022-11-05T15:58:17.440Z,11.51
2022-11-05T16:01:27.981Z,11.19
2022-11-05T16:04:32.502Z,11.48
2022-11-05T16:07:35.017Z,11.54
2022-11-05T16:10:39.701Z,11.17
2022-11-05T16:13:42.998Z,11.27
2022-11-05T16:16:47.358Z,10.86
2022-11-05T16:19:51.071Z,10.89
2022-11-05T16:22:55.483Z,10.84
2022-11-05T16:25:58.010Z,11.05
2022-11-05T16:29:03.705Z,11.29
2022-11-05T16:32:16.620Z,11.19
2022-11-05T16:35:21.479Z,11.10
2022-11-05T16:38:24.507Z,11.01
2022-11-05T16:41:28.084Z,11.05
2022-11-05T16:44:30.594Z,11.23
2022-11-05T16:47:34.564Z,11.07
2022-11-05T16:50:37.583Z,10.99
2022-11-05T16:53:40.114Z,11.14
2022-11-05T16:56:43.786Z,11.04
2022-11-05T16:59:46.327Z,10.88
2022-11-05T17:02:50.332Z,10.99
2022-11-05T17:05:53.044Z,10.99
2022-11-05T17:08:55.532Z,11.17
2022-11-05T17:12:00.591Z,11.10
2022-11-05T17:15:03.453Z,11.08
2022-11-05T17:18:07.374Z,10.89
2022-11-05T17:21:12.689Z,11.08
2022-11-05T17:24:15.193Z,10.95
2022-11-05T17:27:17.690Z,11.11
2022-11-05T17:30:20.230Z,11.19
2022-11-05T17:33:24.402Z,11.07
2022-11-05T17:36:27.673Z,11.17
2022-11-05T17:39:31.856Z,11.24
2022-11-05T17:42:34.556Z,10.79
2022-11-05T17:45:42.643Z,11.00
2022-11-05T17:48:47.028Z,10.76
2022-11-05T17:51:49.510Z,10.17
2022-11-05T17:54:51.991Z,10.60
2022-11-05T17:57:54.532Z,10.79
2022-11-05T18:00:57.191Z,10.31
2022-11-05T18:04:07.298Z,10.12
2022-11-05T18:07:11.323Z,10.53
2022-11-05T18:10:14.418Z,10.47
2022-11-05T18:13:16.905Z,10.19
2022-11-05T18:16:19.498Z,10.20
2022-11-05T18:19:23.323Z,9.94
2022-11-05T18:22:26.606Z,10.25
2022-11-05T18:25:29.176Z,10.12
2022-11-05T18:28:32.692Z,10.20
2022-11-05T18:31:35.240Z,10.26
2022-11-05T18:34:39.128Z,10.43
2022-11-05T18:37:41.872Z,10.36
2022-11-05T18:40:44.360Z,10.31
2022-11-05T18:43:47.372Z,10.48
2022-11-05T18:46:58.880Z,10.40
2022-11-05T18:50:03.194Z,10.24
2022-11-05T18:53:05.680Z,10.36
2022-11-05T18:56:08.828Z,10.33
2022-11-05T18:59:35.187Z,10.25
2022-11-05T19:02:34.234Z,10.31
2022-11-05T19:05:38.365Z,10.16
2022-11-05T19:08:40.885Z,10.22
2022-11-05T19:11:43.430Z,10.14
2022-11-05T19:14:45.939Z,10.13
2022-11-05T19:17:48.428Z,10.43
2022-11-05T19:20:52.262Z,10.10
2022-11-05T19:23:56.697Z,10.11
2022-11-05T19:26:59.270Z,9.87
2022-11-05T19:30:01.787Z,10.23
2022-11-05T19:33:04.412Z,10.09
2022-11-05T19:36:09.930Z,9.87
2022-11-05T19:39:14.709Z,10.03
2022-11-05T19:42:17.253Z,9.93
2022-11-05T19:48:42.732Z,10.07
2022-11-05T19:51:46.720Z,10.14
2022-11-05T19:54:49.238Z,9.92
2022-11-05T19:57:51.805Z,10.12
2022-11-05T20:00:56.796Z,10.02
2022-11-05T20:04:02.315Z,10.37
2022-11-05T20:07:06.390Z,10.36
2022-11-05T20:10:09.775Z,10.13
2022-11-05T20:13:16.996Z,10.19
2022-11-05T20:16:24.834Z,10.27
2022-11-05T20:19:27.329Z,10.37
2022-11-05T20:22:31.167Z,10.36
2022-11-05T20:25:33.671Z,10.20
2022-11-05T20:28:37.156Z,10.42
2022-11-05T20:31:39.998Z,9.94
2022-11-05T20:34:42.509Z,9.91
2022-11-05T20:37:49.782Z,9.89
2022-11-05T20:40:56.184Z,9.86
2022-11-05T20:43:58.863Z,9.73
2022-11-05T20:47:01.359Z,10.01
2022-11-05T20:50:04.589Z,10.26
2022-11-05T20:53:08.494Z,10.35
2022-11-05T20:56:17.456Z,10.26
2022-11-05T20:59:20.404Z,10.48
2022-11-05T21:02:23.055Z,10.30
2022-11-05T21:05:25.604Z,10.41
2022-11-05T21:08:29.683Z,10.13
2022-11-05T21:11:56.000Z,10.31
2022-11-05T21:14:58.556Z,9.86
2022-11-05T21:18:01.405Z,9.82
2022-11-05T21:21:06.405Z,10.11
2022-11-05T21:24:10.479Z,10.10
2022-11-05T21:27:12.984Z,10.14
2022-11-05T21:30:15.468Z,9.93
2022-11-05T21:33:19.473Z,9.81
2022-11-05T21:36:22.080Z,10.10
2022-11-05T21:39:26.045Z,9.65
2022-11-05T21:42:30.461Z,9.64
2022-11-05T21:45:32.944Z,9.74
2022-11-05T21:48:35.485Z,9.96
2022-11-05T21:52:07.280Z,10.08
2022-11-05T21:55:34.455Z,10.03
2022-11-05T21:58:54.555Z,10.19
2022-11-05T22:02:01.497Z,10.23
2022-11-05T22:05:05.577Z,10.27
2022-11-05T22:08:08.136Z,10.29
2022-11-05T22:11:12.002Z,10.06
2022-11-05T22:14:14.489Z,10.01
2022-11-05T22:17:17.775Z,10.10
2022-11-05T22:20:20.368Z,10.30
2022-11-05T22:23:22.883Z,10.29
2022-11-05T22:26:26.731Z,10.26
2022-11-05T22:29:29.693Z,10.10
2022-11-05T22:32:32.179Z,9.93
2022-11-05T22:35:34.688Z,9.85
2022-11-05T22:38:37.324Z,9.78
2022-11-05T22:41:41.889Z,10.14
2022-11-05T22:44:44.420Z,9.95
2022-11-05T22:47:46.907Z,9.95
2022-11-05T22:50:49.630Z,9.87
2022-11-05T22:53:52.571Z,9.97
2022-11-05T22:56:56.408Z,10.04
2022-11-05T22:59:58.916Z,10.35
2022-11-05T23:03:02.645Z,10.13
2022-11-05T23:06:28.007Z,10.04
2022-11-05T23:09:50.059Z,10.10
2022-11-05T23:12:55.665Z,10.27
2022-11-05T23:16:15.657Z,10.17
2022-11-05T23:19:36.083Z,10.05
2022-11-05T23:22:56.411Z,10.41
2022-11-05T23:25:59.120Z,10.35
2022-11-05T23:29:03.008Z,10.53
2022-11-05T23:32:23.285Z,10.21
2022-11-05T23:35:40.142Z,10.37
2022-11-05T23:38:42.691Z,10.35
2022-11-05T23:42:02.668Z,10.18
2022-11-05T23:45:25.741Z,10.35
2022-11-05T23:48:32.537Z,10.22
2022-11-05T23:51:35.028Z,10.09
2022-11-05T23:54:37.513Z,10.10
2022-11-05T23:57:40.769Z,10.08
